createdAt,value
2019-02-26T00:01:18.537Z,80.66
2019-02-26T00:03:53.420Z,81.02
2019-02-26T00:06:23.375Z,80.87
2019-02-26T00:09:03.747Z,81.77
2019-02-26T00:11:41.838Z,81.55
2019-02-26T00:14:13.135Z,81.50
2019-02-26T00:16:42.429Z,81.94
2019-02-26T00:19:18.049Z,81.73
2019-02-26T00:21:47.921Z,81.81
2019-02-26T00:24:16.797Z,82.31
2019-02-26T00:26:58.603Z,82.13
2019-02-26T00:29:46.453Z,82.11
2019-02-26T00:32:25.764Z,81.99
2019-02-26T00:37:55.866Z,82.96
2019-02-26T00:40:24.127Z,83.21
2019-02-26T00:43:04.773Z,82.89
2019-02-26T00:45:34.024Z,82.92
2019-02-26T00:48:09.666Z,83.23
2019-02-26T00:53:59.741Z,83.52
2019-02-26T00:56:36.340Z,83.21
2019-02-26T00:59:14.612Z,82.99
2019-02-26T01:01:46.002Z,82.91
2019-02-26T01:04:19.529Z,82.74
2019-02-26T01:10:18.163Z,82.69
2019-02-26T01:12:52.357Z,83.24
2019-02-26T01:15:32.411Z,83.17
2019-02-26T01:18:01.457Z,83.24
2019-02-26T01:20:36.598Z,83.47
2019-02-26T01:26:36.996Z,83.84
2019-02-26T01:32:08.891Z,83.29
2019-02-26T01:34:47.827Z,83.63
2019-02-26T01:40:45.639Z,83.63
2019-02-26T01:43:19.031Z,83.82
2019-02-26T01:45:48.624Z,83.33
2019-02-26T01:48:27.150Z,83.21
2019-02-26T01:50:57.472Z,83.38
2019-02-26T01:53:32.719Z,83.67
2019-02-26T01:56:04.599Z,83.70
2019-02-26T01:59:19.009Z,83.37
2019-02-26T02:04:57.166Z,82.44
2019-02-26T02:07:25.967Z,82.37
2019-02-26T02:13:07.086Z,83.21
2019-02-26T02:15:44.423Z,83.82
2019-02-26T02:18:25.343Z,84.12
2019-02-26T02:21:00.401Z,83.76
2019-02-26T02:23:30.239Z,84.40
2019-02-26T02:26:07.113Z,84.79
2019-02-26T02:28:41.505Z,84.84
2019-02-26T02:31:52.155Z,84.85
2019-02-26T02:34:29.445Z,84.85
2019-02-26T02:40:04.961Z,85.11
2019-02-26T02:42:34.905Z,84.21
2019-02-26T02:45:17.048Z,83.67
2019-02-26T02:47:43.885Z,83.64
2019-02-26T02:50:15.337Z,83.99
2019-02-26T02:52:50.954Z,84.23
2019-02-26T02:55:25.326Z,84.53
2019-02-26T03:01:16.506Z,85.15
2019-02-26T03:03:56.444Z,85.45
2019-02-26T03:06:32.606Z,85.48
2019-02-26T03:09:43.196Z,85.13
2019-02-26T03:12:32.454Z,85.08
2019-02-26T03:15:02.465Z,85.10
2019-02-26T03:17:31.447Z,85.47
2019-02-26T03:20:19.175Z,85.21
2019-02-26T03:25:49.872Z,85.77
2019-02-26T03:28:23.895Z,85.97
2019-02-26T03:31:11.421Z,85.86
2019-02-26T03:33:39.325Z,85.65
2019-02-26T03:36:08.559Z,85.34
2019-02-26T03:38:44.030Z,85.39
2019-02-26T03:44:03.413Z,85.75
2019-02-26T03:47:19.514Z,86.11
2019-02-26T03:49:48.475Z,86.54
2019-02-26T03:52:16.813Z,86.22
2019-02-26T03:54:47.393Z,86.00
2019-02-26T03:57:22.738Z,86.22
2019-02-26T03:59:51.585Z,86.02
2019-02-26T04:02:20.923Z,86.45
2019-02-26T04:05:00.768Z,86.18
2019-02-26T04:08:22.099Z,86.37
2019-02-26T04:11:07.965Z,85.01
2019-02-26T04:13:36.195Z,85.24
2019-02-26T04:16:04.708Z,85.59
2019-02-26T04:18:34.752Z,85.70
2019-02-26T04:21:05.929Z,85.96
2019-02-26T04:23:42.119Z,86.49
2019-02-26T04:26:44.070Z,87.24
2019-02-26T04:29:50.376Z,87.19
2019-02-26T04:32:57.029Z,87.30
2019-02-26T04:36:03.722Z,87.42
2019-02-26T04:39:08.407Z,86.75
2019-02-26T04:42:21.591Z,86.28
2019-02-26T04:45:28.201Z,86.27
2019-02-26T04:51:39.110Z,86.50
2019-02-26T04:54:17.492Z,86.74
2019-02-26T04:57:30.228Z,86.97
2019-02-26T05:00:01.051Z,87.08
2019-02-26T05:02:29.086Z,87.34
2019-02-26T05:04:57.378Z,87.77
2019-02-26T05:07:25.349Z,87.71
2019-02-26T05:10:12.563Z,87.23
2019-02-26T05:12:40.735Z,87.13
2019-02-26T05:15:13.967Z,87.22
2019-02-26T05:17:46.220Z,87.14
2019-02-26T05:20:16.558Z,87.18
2019-02-26T05:22:52.024Z,87.40
2019-02-26T05:25:21.481Z,87.13
2019-02-26T05:27:50.930Z,87.10
2019-02-26T05:30:26.654Z,87.27
2019-02-26T05:32:57.960Z,87.26
2019-02-26T05:38:54.058Z,87.72
2019-02-26T05:41:21.808Z,87.52
2019-02-26T05:43:55.257Z,87.50
2019-02-26T05:46:29.377Z,87.69
2019-02-26T05:49:05.519Z,88.20
2019-02-26T05:51:39.265Z,88.33
2019-02-26T06:00:08.327Z,88.33
2019-02-26T06:02:47.295Z,88.65
2019-02-26T06:05:32.356Z,88.51
2019-02-26T06:08:00.665Z,88.52
2019-02-26T06:13:32.441Z,88.38
2019-02-26T06:16:07.664Z,88.48
2019-02-26T06:18:46.509Z,88.52
2019-02-26T06:24:22.762Z,88.74
2019-02-26T06:26:56.771Z,88.96
2019-02-26T06:29:37.416Z,88.79
2019-02-26T06:32:27.430Z,88.89
2019-02-26T06:35:01.312Z,88.63
2019-02-26T06:37:31.339Z,88.20
2019-02-26T06:40:00.654Z,88.08
2019-02-26T06:43:19.707Z,87.69
2019-02-26T06:45:47.970Z,87.46
2019-02-26T06:48:19.331Z,87.52
2019-02-26T06:50:55.652Z,87.18
2019-02-26T06:53:30.105Z,86.87
2019-02-26T06:55:58.565Z,86.62
2019-02-26T06:58:40.579Z,86.01
2019-02-26T07:01:28.233Z,85.35
2019-02-26T07:03:56.842Z,85.07
2019-02-26T07:06:34.823Z,84.58
2019-02-26T07:09:15.268Z,84.92
2019-02-26T07:11:50.246Z,84.98
2019-02-26T07:14:18.926Z,85.09
2019-02-26T07:16:46.851Z,84.85
2019-02-26T07:19:16.603Z,85.28
2019-02-26T07:21:53.048Z,85.18
2019-02-26T07:24:23.047Z,85.44
2019-02-26T07:30:15.269Z,84.85
2019-02-26T07:32:45.523Z,84.77
2019-02-26T07:35:19.434Z,84.64
2019-02-26T07:37:47.721Z,84.45
2019-02-26T07:40:16.366Z,84.44
2019-02-26T07:45:54.747Z,83.73
2019-02-26T07:48:23.813Z,83.38
2019-02-26T07:50:58.670Z,81.93
2019-02-26T07:53:26.947Z,81.54
2019-02-26T07:55:56.870Z,81.07
2019-02-26T07:58:33.290Z,80.95
2019-02-26T08:01:08.816Z,80.44
2019-02-26T08:06:38.536Z,80.54
2019-02-26T08:09:16.478Z,80.94
2019-02-26T08:11:46.942Z,81.16
2019-02-26T08:15:05.673Z,81.41
2019-02-26T08:21:02.473Z,81.60
2019-02-26T08:23:36.958Z,81.69
2019-02-26T08:26:05.127Z,81.79
2019-02-26T08:28:33.796Z,81.73
2019-02-26T08:31:02.377Z,81.48
2019-02-26T08:33:30.648Z,81.78
2019-02-26T08:35:58.906Z,81.47
2019-02-26T08:38:30.037Z,81.62
2019-02-26T08:41:04.070Z,81.52
2019-02-26T08:44:12.700Z,81.09
2019-02-26T08:50:01.925Z,80.96
2019-02-26T08:52:41.019Z,80.91
2019-02-26T08:55:24.385Z,81.12
2019-02-26T09:00:49.816Z,80.09
2019-02-26T09:04:00.650Z,79.25
2019-02-26T09:06:38.744Z,78.84
2019-02-26T09:09:48.125Z,77.27
2019-02-26T09:12:24.722Z,76.56
2019-02-26T09:15:00.448Z,75.60
2019-02-26T09:17:30.477Z,75.49
2019-02-26T09:20:47.354Z,73.35
2019-02-26T09:29:19.522Z,63.59
2019-02-26T09:38:00.110Z,54.35
2019-02-26T09:40:26.644Z,52.53
2019-02-26T09:42:58.202Z,49.81
2019-02-26T09:49:10.504Z,46.45
2019-02-26T09:57:22.815Z,40.26
2019-02-26T09:59:58.186Z,38.54
2019-02-26T10:02:32.396Z,38.94
2019-02-26T10:05:00.283Z,38.51
2019-02-26T10:07:30.675Z,37.17
2019-02-26T10:10:06.518Z,36.02
2019-02-26T10:12:41.619Z,34.96
2019-02-26T10:15:22.142Z,33.81
2019-02-26T10:17:49.954Z,34.73
2019-02-26T10:20:58.971Z,33.71
2019-02-26T10:23:29.087Z,34.88
2019-02-26T10:26:44.215Z,34.50
2019-02-26T10:29:45.090Z,33.94
2019-02-26T10:35:33.307Z,33.47
2019-02-26T10:38:00.437Z,31.24
2019-02-26T10:46:32.122Z,28.25
2019-02-26T10:49:09.809Z,28.01
2019-02-26T10:51:42.402Z,30.78
2019-02-26T10:54:17.947Z,29.09
2019-02-26T10:56:45.138Z,29.10
2019-02-26T10:59:32.723Z,30.54
2019-02-26T11:02:03.054Z,30.63
2019-02-26T11:04:52.708Z,28.62
2019-02-26T11:10:43.977Z,27.08
2019-02-26T11:13:18.212Z,24.92
2019-02-26T11:16:05.319Z,24.70
2019-02-26T11:21:57.607Z,24.03
2019-02-26T11:24:33.496Z,25.53
2019-02-26T11:27:00.799Z,26.08
2019-02-26T11:35:39.651Z,26.49
2019-02-26T11:38:16.926Z,26.43
2019-02-26T11:44:07.545Z,27.88
2019-02-26T11:46:46.747Z,27.29
2019-02-26T11:49:37.016Z,28.40
2019-02-26T11:52:12.535Z,28.41
2019-02-26T11:57:45.158Z,28.50
2019-02-26T12:01:00.766Z,27.50
2019-02-26T12:03:32.760Z,27.97
2019-02-26T12:09:40.782Z,25.63
2019-02-26T12:12:16.144Z,25.63
2019-02-26T12:14:46.670Z,26.28
2019-02-26T12:21:05.384Z,25.38
2019-02-26T12:26:52.850Z,26.89
2019-02-26T12:29:34.772Z,26.14
2019-02-26T12:35:14.749Z,26.97
2019-02-26T12:38:22.980Z,26.01
2019-02-26T12:40:53.411Z,25.62
2019-02-26T12:43:30.154Z,26.30
2019-02-26T12:52:09.114Z,24.59
2019-02-26T12:55:17.327Z,25.43
2019-02-26T12:57:47.136Z,24.52
2019-02-26T13:03:19.836Z,24.00
2019-02-26T13:05:55.864Z,21.79
2019-02-26T13:08:24.386Z,20.81
2019-02-26T13:11:14.016Z,20.98
2019-02-26T13:17:08.608Z,23.66
2019-02-26T13:19:58.889Z,23.63
2019-02-26T13:22:35.394Z,23.56
2019-02-26T13:28:05.507Z,21.93
2019-02-26T13:33:37.462Z,22.37
2019-02-26T13:36:04.825Z,21.67
2019-02-26T13:38:44.707Z,22.09
2019-02-26T13:41:38.338Z,21.72
2019-02-26T13:44:32.932Z,22.43
2019-02-26T13:47:01.213Z,22.69
2019-02-26T13:50:09.801Z,23.94
2019-02-26T13:52:38.104Z,23.41
2019-02-26T13:55:46.896Z,22.75
2019-02-26T13:58:15.250Z,23.77
2019-02-26T14:01:23.835Z,23.07
2019-02-26T14:03:52.533Z,23.72
2019-02-26T14:07:01.202Z,24.02
2019-02-26T14:09:48.446Z,22.75
2019-02-26T14:13:05.008Z,23.20
2019-02-26T14:18:53.628Z,22.87
2019-02-26T14:22:01.867Z,22.34
2019-02-26T14:27:31.344Z,21.72
2019-02-26T14:33:42.065Z,21.53
2019-02-26T14:36:10.003Z,22.99
2019-02-26T14:38:38.485Z,23.00
2019-02-26T14:41:07.075Z,22.84
2019-02-26T14:43:35.922Z,23.42
2019-02-26T14:46:04.584Z,23.42
2019-02-26T14:51:34.961Z,23.23
2019-02-26T14:54:03.181Z,23.41
2019-02-26T14:56:31.830Z,23.70
2019-02-26T14:59:00.148Z,23.64
2019-02-26T15:01:28.613Z,24.31
2019-02-26T15:06:58.414Z,21.14
2019-02-26T15:09:27.169Z,21.07
2019-02-26T15:12:06.719Z,20.61
2019-02-26T15:15:06.874Z,21.16
2019-02-26T15:17:34.832Z,22.44
2019-02-26T15:20:03.424Z,22.81
2019-02-26T15:22:31.710Z,22.81
2019-02-26T15:25:00.332Z,23.84
2019-02-26T15:27:35.969Z,23.63
2019-02-26T15:30:46.038Z,23.59
2019-02-26T15:33:14.714Z,24.08
2019-02-26T15:36:02.001Z,24.62
2019-02-26T15:38:30.897Z,25.15
2019-02-26T15:41:39.185Z,25.40
2019-02-26T15:47:09.193Z,27.70
2019-02-26T15:49:44.540Z,28.86
2019-02-26T15:52:12.476Z,29.03
2019-02-26T15:54:40.322Z,28.43
2019-02-26T15:57:08.192Z,28.02
2019-02-26T15:59:36.540Z,28.19
2019-02-26T16:02:04.804Z,28.64
2019-02-26T16:04:33.340Z,28.78
2019-02-26T16:07:01.873Z,29.16
2019-02-26T16:09:30.528Z,29.54
2019-02-26T16:11:58.098Z,29.86
2019-02-26T16:14:26.365Z,29.87
2019-02-26T16:16:55.055Z,30.57
2019-02-26T16:19:23.906Z,32.10
2019-02-26T16:21:52.428Z,33.73
2019-02-26T16:24:21.137Z,35.98
2019-02-26T16:26:49.415Z,37.52
2019-02-26T16:29:18.798Z,39.36
2019-02-26T16:31:47.817Z,40.68
2019-02-26T16:34:17.483Z,42.88
2019-02-26T16:36:56.331Z,43.63
2019-02-26T16:43:06.561Z,45.03
2019-02-26T16:45:46.423Z,45.91
2019-02-26T16:50:54.089Z,48.32
2019-02-26T16:54:04.767Z,49.46
2019-02-26T16:56:42.808Z,50.55
2019-02-26T16:59:11.381Z,52.01
2019-02-26T17:01:41.569Z,53.13
2019-02-26T17:04:10.127Z,54.02
2019-02-26T17:06:38.479Z,55.07
2019-02-26T17:09:07.691Z,55.96
2019-02-26T17:11:35.954Z,56.64
2019-02-26T17:14:04.655Z,57.61
2019-02-26T17:16:32.636Z,58.59
2019-02-26T17:19:00.812Z,59.45
2019-02-26T17:21:30.674Z,60.40
2019-02-26T17:23:58.443Z,61.24
2019-02-26T17:26:26.364Z,61.94
2019-02-26T17:28:54.998Z,62.53
2019-02-26T17:31:22.541Z,62.87
2019-02-26T17:33:51.124Z,63.15
2019-02-26T17:36:19.808Z,63.46
2019-02-26T17:38:51.544Z,63.88
2019-02-26T17:41:17.944Z,64.17
2019-02-26T17:43:46.183Z,64.57
2019-02-26T17:46:14.652Z,65.25
2019-02-26T17:48:43.874Z,65.69
2019-02-26T17:51:12.528Z,66.04
2019-02-26T17:53:41.015Z,66.27
2019-02-26T17:56:09.378Z,66.76
2019-02-26T17:58:37.315Z,67.12
2019-02-26T18:01:06.109Z,67.41
2019-02-26T18:03:34.340Z,67.65
2019-02-26T18:06:02.999Z,68.06
2019-02-26T18:08:31.344Z,68.17
2019-02-26T18:10:59.314Z,68.60
2019-02-26T18:13:27.647Z,68.96
2019-02-26T18:15:56.973Z,69.24
2019-02-26T18:18:34.257Z,69.41
2019-02-26T18:21:11.094Z,70.26
2019-02-26T18:23:38.696Z,70.61
2019-02-26T18:26:07.069Z,70.92
2019-02-26T18:28:36.789Z,71.45
2019-02-26T18:31:05.691Z,71.46
2019-02-26T18:33:36.205Z,71.54
2019-02-26T18:36:11.356Z,71.71
2019-02-26T18:38:40.068Z,72.24
2019-02-26T18:44:10.358Z,72.88
2019-02-26T18:46:39.182Z,73.39
2019-02-26T18:49:07.424Z,73.53
2019-02-26T18:51:36.495Z,73.08
2019-02-26T18:54:05.189Z,73.82
2019-02-26T18:56:36.350Z,73.40
2019-02-26T18:59:10.279Z,73.57
2019-02-26T19:01:38.994Z,74.07
2019-02-26T19:04:07.164Z,73.38
2019-02-26T19:06:35.797Z,73.86
2019-02-26T19:12:25.559Z,73.76
2019-02-26T19:14:53.894Z,73.52
2019-02-26T19:17:21.937Z,73.86
2019-02-26T19:19:50.635Z,74.37
2019-02-26T19:22:18.566Z,74.10
2019-02-26T19:24:46.739Z,74.29
2019-02-26T19:27:16.874Z,74.52
2019-02-26T19:29:52.724Z,75.22
2019-02-26T19:32:21.296Z,74.79
2019-02-26T19:34:49.561Z,75.56
2019-02-26T19:37:19.120Z,75.30
2019-02-26T19:39:47.914Z,75.03
2019-02-26T19:42:17.544Z,75.21
2019-02-26T19:45:33.014Z,75.32
2019-02-26T19:48:09.846Z,75.11
2019-02-26T19:50:38.030Z,74.45
2019-02-26T19:53:06.730Z,75.01
2019-02-26T19:55:36.078Z,75.04
2019-02-26T19:58:06.803Z,75.70
2019-02-26T20:00:41.380Z,75.61
2019-02-26T20:03:09.384Z,75.76
2019-02-26T20:05:37.462Z,75.68
2019-02-26T20:08:06.098Z,75.48
2019-02-26T20:10:49.129Z,76.68
2019-02-26T20:13:23.036Z,76.57
2019-02-26T20:19:12.468Z,76.95
2019-02-26T20:21:41.231Z,76.74
2019-02-26T20:24:09.940Z,77.15
2019-02-26T20:26:37.979Z,76.75
2019-02-26T20:29:07.764Z,77.66
2019-02-26T20:31:44.177Z,77.87
2019-02-26T20:34:24.432Z,78.17
2019-02-26T20:37:12.136Z,78.56
2019-02-26T20:39:52.244Z,78.88
2019-02-26T20:45:30.090Z,79.21
2019-02-26T20:51:01.250Z,79.30
2019-02-26T20:53:30.614Z,79.15
2019-02-26T20:55:59.036Z,79.97
2019-02-26T20:58:27.624Z,79.44
2019-02-26T21:00:58.619Z,80.37
2019-02-26T21:03:33.194Z,80.31
2019-02-26T21:06:01.098Z,80.10
2019-02-26T21:08:30.965Z,80.52
2019-02-26T21:11:48.814Z,79.87
2019-02-26T21:14:38.674Z,79.60
2019-02-26T21:17:13.425Z,80.27
2019-02-26T21:20:01.100Z,79.49
2019-02-26T21:23:10.445Z,80.08
2019-02-26T21:25:58.577Z,79.92
2019-02-26T21:31:29.470Z,80.26
2019-02-26T21:34:17.326Z,80.25
2019-02-26T21:40:04.716Z,81.02
2019-02-26T21:42:53.006Z,80.28
2019-02-26T21:45:20.902Z,81.39
2019-02-26T21:48:08.819Z,81.13
2019-02-26T21:50:48.752Z,81.83
2019-02-26T21:53:17.259Z,81.69
2019-02-26T21:55:45.223Z,82.11
2019-02-26T21:58:56.961Z,81.09
2019-02-26T22:01:47.036Z,80.86
2019-02-26T22:04:16.533Z,80.85
2019-02-26T22:10:07.089Z,81.39
2019-02-26T22:13:02.981Z,81.22
2019-02-26T22:15:50.661Z,82.07
2019-02-26T22:18:38.251Z,82.20
2019-02-26T22:21:06.111Z,82.75
2019-02-26T22:23:34.322Z,81.99
2019-02-26T22:26:14.049Z,82.24
2019-02-26T22:28:42.672Z,82.84
2019-02-26T22:31:10.602Z,83.14
2019-02-26T22:33:40.723Z,83.33
2019-02-26T22:36:15.418Z,83.61
2019-02-26T22:39:14.845Z,84.66
2019-02-26T22:44:45.020Z,83.89
2019-02-26T22:47:13.655Z,84.13
2019-02-26T22:49:53.771Z,84.56
2019-02-26T22:52:30.658Z,84.20
2019-02-26T22:55:03.799Z,84.16
2019-02-26T22:57:32.378Z,84.40
2019-02-26T23:00:00.764Z,84.18
2019-02-26T23:05:30.535Z,84.33
2019-02-26T23:08:39.165Z,84.71
2019-02-26T23:14:27.345Z,83.57
2019-02-26T23:16:55.924Z,83.77
2019-02-26T23:19:23.801Z,84.39
2019-02-26T23:21:52.264Z,83.84
2019-02-26T23:24:20.873Z,84.09
2019-02-26T23:26:49.081Z,84.83
2019-02-26T23:29:17.651Z,84.22
2019-02-26T23:31:45.199Z,84.99
2019-02-26T23:34:13.397Z,84.69
2019-02-26T23:36:41.594Z,84.80
2019-02-26T23:42:11.540Z,85.49
2019-02-26T23:44:39.844Z,85.87
2019-02-26T23:47:07.750Z,85.88
2019-02-26T23:49:35.700Z,85.50
2019-02-26T23:52:03.895Z,85.73
2019-02-26T23:54:32.171Z,85.77
2019-02-26T23:57:00.784Z,85.80
2019-02-26T23:59:29.035Z,85.99
